Time;durP1;ratioP1;P1;durP2;ratioP2;P2;SDS_P1;SDS_P2;PMS_P1;PMS_P2;Temp;Humidity;BMP_temperature;BMP_pressure;BME280_temperature;BME280_humidity;BME280_pressure;Samples;Min_cycle;Max_cycle;Signal;HPM_P1;HPM_P2
2023/10/17 00:01:13;;;;;;;1.43;1.30;;;14.10;63.70;;;;;;5061806;28;20575;-51
2023/10/17 00:03:44;;;;;;;2.20;1.43;;;14.10;63.80;;;;;;5055325;28;20474;-51
2023/10/17 00:06:16;;;;;;;2.40;1.73;;;14.10;63.70;;;;;;5047016;28;20438;-52
2023/10/17 00:08:50;;;;;;;1.87;1.73;;;14.10;63.70;;;;;;5056481;28;20493;-52
2023/10/17 00:11:21;;;;;;;1.53;1.40;;;14.10;63.70;;;;;;5063224;28;20430;-51
2023/10/17 00:14:04;;;;;;;2.80;2.07;;;14.00;63.60;;;;;;5047928;28;20577;-53
2023/10/17 00:16:33;;;;;;;1.90;1.70;;;14.00;63.30;;;;;;5066143;28;20439;-52
2023/10/17 00:19:04;;;;;;;2.40;1.40;;;14.00;63.60;;;;;;5061819;28;20479;-52
2023/10/17 00:21:34;;;;;;;1.57;1.40;;;14.00;63.60;;;;;;5065345;28;20445;-51
2023/10/17 00:24:08;;;;;;;3.10;1.90;;;14.00;63.70;;;;;;5048694;28;20482;-53
2023/10/17 00:26:37;;;;;;;1.90;1.70;;;14.00;63.70;;;;;;5070293;28;20436;-50
2023/10/17 00:29:07;;;;;;;2.20;1.43;;;14.00;63.70;;;;;;5066367;28;20467;-52
2023/10/17 00:31:36;;;;;;;1.70;1.60;;;14.00;63.70;;;;;;5064166;28;20423;-51
2023/10/17 00:34:13;;;;;;;1.90;1.40;;;14.10;63.80;;;;;;5049544;28;20909;-51
2023/10/17 00:36:49;;;;;;;2.47;1.40;;;14.00;63.60;;;;;;5047458;28;20427;-52
2023/10/17 00:39:29;;;;;;;2.50;1.93;;;14.00;63.60;;;;;;5049444;28;20452;-53
2023/10/17 00:44:47;;;;;;;2.33;1.93;;;14.00;63.50;;;;;;5063642;28;20439;-52
2023/10/17 00:47:18;;;;;;;1.77;1.60;;;14.00;63.60;;;;;;5063830;28;20476;-52
2023/10/17 00:49:49;;;;;;;1.90;1.50;;;14.00;63.70;;;;;;5064694;28;20899;-49
2023/10/17 00:52:29;;;;;;;2.00;1.80;;;14.00;63.60;;;;;;5061260;28;20456;-54
2023/10/17 00:54:59;;;;;;;2.07;1.67;;;14.00;63.60;;;;;;5066240;28;20436;-51
2023/10/17 00:57:27;;;;;;;2.20;1.80;;;14.00;63.70;;;;;;5066406;28;20471;-53
2023/10/17 00:59:56;;;;;;;2.90;1.60;;;14.00;63.70;;;;;;5062122;28;20933;-52
2023/10/17 01:02:29;;;;;;;2.10;1.70;;;14.00;63.70;;;;;;5061695;28;20465;-51
2023/10/17 01:04:59;;;;;;;1.90;1.77;;;14.00;63.70;;;;;;5049128;28;20515;-51
2023/10/17 01:07:30;;;;;;;1.33;1.20;;;14.00;63.60;;;;;;5062607;28;20479;-51
2023/10/17 01:10:09;;;;;;;2.30;1.50;;;14.00;63.60;;;;;;5066727;28;20458;-50
2023/10/17 01:12:45;;;;;;;2.13;1.93;;;14.00;63.70;;;;;;5062037;28;20439;-51
2023/10/17 01:15:20;;;;;;;2.90;1.80;;;14.00;63.50;;;;;;5058680;28;20559;-52
2023/10/17 01:17:48;;;;;;;2.13;1.93;;;14.00;63.60;;;;;;5063215;28;20470;-51
2023/10/17 01:20:19;;;;;;;1.83;1.73;;;14.00;63.60;;;;;;5068740;28;20925;-50
2023/10/17 01:22:55;;;;;;;2.47;1.57;;;14.00;63.60;;;;;;5060117;28;20442;-53
2023/10/17 01:25:26;;;;;;;1.70;1.30;;;14.00;63.70;;;;;;5048858;28;20458;-52
2023/10/17 01:27:57;;;;;;;2.10;1.80;;;14.00;63.60;;;;;;5060480;28;20479;-52
2023/10/17 01:30:29;;;;;;;2.30;1.60;;;14.00;63.60;;;;;;5066559;28;20499;-51
2023/10/17 01:32:59;;;;;;;2.23;1.87;;;14.00;63.60;;;;;;5058692;28;20448;-50
2023/10/17 01:35:27;;;;;;;1.90;1.60;;;14.00;63.50;;;;;;5049639;28;20455;-52
2023/10/17 01:37:56;;;;;;;1.97;1.63;;;13.90;63.60;;;;;;5063041;28;20450;-53
2023/10/17 01:40:27;;;;;;;1.40;1.30;;;13.90;63.60;;;;;;5062890;28;20443;-53
2023/10/17 01:42:57;;;;;;;2.40;1.70;;;14.00;63.60;;;;;;5060646;28;20457;-52
2023/10/17 01:45:27;;;;;;;1.90;1.63;;;14.00;63.50;;;;;;5046239;28;21064;-52
2023/10/17 01:47:56;;;;;;;2.07;1.90;;;13.90;63.60;;;;;;5062227;28;20443;-51
2023/10/17 01:50:25;;;;;;;2.13;1.80;;;13.90;63.40;;;;;;5054231;28;20474;-50
2023/10/17 01:52:54;;;;;;;1.50;1.40;;;13.90;63.50;;;;;;5058644;28;20443;-52
2023/10/17 01:55:27;;;;;;;1.53;1.40;;;13.90;63.50;;;;;;5047223;28;20459;-52
2023/10/17 01:57:59;;;;;;;2.00;1.80;;;13.90;63.50;;;;;;5059759;28;20983;-51
2023/10/17 02:00:37;;;;;;;1.63;1.53;;;13.90;63.60;;;;;;5065906;28;20808;-51
2023/10/17 02:03:07;;;;;;;1.53;1.30;;;13.90;63.50;;;;;;5062574;28;20855;-51
2023/10/17 02:05:36;;;;;;;1.67;1.50;;;13.90;63.60;;;;;;5063131;28;21304;-51
2023/10/17 02:08:06;;;;;;;1.30;1.20;;;13.90;63.60;;;;;;5059273;28;20940;-51
2023/10/17 02:10:36;;;;;;;2.70;1.93;;;13.90;63.60;;;;;;5063354;28;20840;-52
2023/10/17 02:13:07;;;;;;;2.17;1.80;;;13.90;63.50;;;;;;5063138;28;20463;-51
2023/10/17 02:15:38;;;;;;;2.47;1.60;;;13.90;63.50;;;;;;5063537;28;20534;-52
2023/10/17 02:18:14;;;;;;;2.13;1.87;;;13.90;63.50;;;;;;5061470;28;21054;-52
2023/10/17 02:20:48;;;;;;;1.63;1.40;;;13.90;63.60;;;;;;5063461;28;20440;-51
2023/10/17 02:23:20;;;;;;;2.60;1.63;;;13.90;63.50;;;;;;5057720;28;20477;-51
2023/10/17 02:25:50;;;;;;;1.80;1.60;;;13.90;63.50;;;;;;5066200;28;20461;-52
2023/10/17 02:28:20;;;;;;;2.00;1.57;;;13.90;63.50;;;;;;5065707;28;20478;-52
2023/10/17 02:30:48;;;;;;;1.90;1.60;;;13.90;63.50;;;;;;5069883;28;20471;-51
2023/10/17 02:33:18;;;;;;;2.17;1.43;;;13.90;63.60;;;;;;5064585;28;20676;-50
2023/10/17 02:36:04;;;;;;;1.97;1.50;;;13.90;63.60;;;;;;5066580;28;20506;-52
2023/10/17 02:38:33;;;;;;;2.30;1.47;;;13.90;63.10;;;;;;5044926;28;21001;-51
2023/10/17 02:41:02;;;;;;;2.60;1.60;;;13.90;63.60;;;;;;5053418;28;20501;-50
2023/10/17 02:43:35;;;;;;;1.90;1.70;;;13.90;63.50;;;;;;5065414;28;20513;-50
2023/10/17 02:46:05;;;;;;;2.03;1.70;;;13.90;63.50;;;;;;5044709;28;20977;-52
2023/10/17 02:48:38;;;;;;;1.30;1.20;;;13.90;63.50;;;;;;5059039;28;20543;-52
2023/10/17 02:51:30;;;;;;;1.63;1.50;;;13.90;63.60;;;;;;5046383;28;20463;-52
2023/10/17 02:54:05;;;;;;;2.07;1.87;;;13.80;63.50;;;;;;5062246;28;20471;-52
2023/10/17 02:56:38;;;;;;;1.73;1.57;;;13.80;63.40;;;;;;5047410;28;20446;-51
2023/10/17 02:59:09;;;;;;;1.77;1.67;;;13.80;63.40;;;;;;5059106;28;20482;-51
2023/10/17 03:01:39;;;;;;;1.77;1.27;;;13.80;63.40;;;;;;5058777;28;20919;-52
2023/10/17 03:04:09;;;;;;;1.80;1.60;;;13.80;63.30;;;;;;5059587;28;20481;-53
2023/10/17 03:06:39;;;;;;;2.40;1.60;;;13.80;63.40;;;;;;5065173;28;20435;-52
2023/10/17 03:09:33;;;;;;;1.50;1.40;;;13.80;63.50;;;;;;5059507;28;20464;-51
2023/10/17 03:12:19;;;;;;;4.40;1.50;;;13.80;63.30;;;;;;5060242;28;20471;-51
2023/10/17 03:17:34;;;;;;;1.60;1.50;;;13.80;63.40;;;;;;5055044;28;20469;-54
2023/10/17 03:20:01;;;;;;;2.47;1.47;;;13.80;63.40;;;;;;5041345;28;20817;-53
2023/10/17 03:22:29;;;;;;;2.10;1.77;;;13.80;63.50;;;;;;5042951;28;20546;-52
2023/10/17 03:25:02;;;;;;;2.13;1.80;;;13.80;63.50;;;;;;5061031;28;20880;-52
2023/10/17 03:27:37;;;;;;;1.97;1.60;;;13.80;63.40;;;;;;5059387;28;20475;-52
2023/10/17 03:30:11;;;;;;;1.80;1.70;;;13.80;63.20;;;;;;5056815;28;22505;-52
2023/10/17 03:32:54;;;;;;;2.27;2.07;;;13.80;63.40;;;;;;5045738;28;20526;-50
2023/10/17 03:35:25;;;;;;;2.23;2.03;;;13.80;63.30;;;;;;5062706;28;20454;-50
2023/10/17 03:37:55;;;;;;;2.00;1.50;;;13.80;63.40;;;;;;5040619;28;20485;-52
2023/10/17 03:40:30;;;;;;;2.33;1.87;;;13.80;63.20;;;;;;5044431;28;20425;-50
2023/10/17 03:43:04;;;;;;;2.00;1.40;;;13.70;63.20;;;;;;5063371;28;20557;-51
2023/10/17 03:45:43;;;;;;;1.67;1.57;;;13.80;63.30;;;;;;5061307;28;20905;-50
2023/10/17 03:48:14;;;;;;;2.47;1.40;;;13.70;63.40;;;;;;5046267;28;20451;-51
2023/10/17 03:50:58;;;;;;;1.80;1.50;;;13.70;63.20;;;;;;5066234;28;20477;-51
2023/10/17 03:53:29;;;;;;;2.10;1.60;;;13.70;63.20;;;;;;5062047;28;20862;-51
2023/10/17 03:56:01;;;;;;;1.83;1.53;;;13.70;63.40;;;;;;5065240;28;20447;-51
2023/10/17 03:58:43;;;;;;;2.63;2.40;;;13.70;63.20;;;;;;5067504;28;20468;-51
2023/10/17 04:01:18;;;;;;;1.80;1.37;;;13.70;62.90;;;;;;5045792;28;20812;-51
2023/10/17 04:03:48;;;;;;;1.80;1.70;;;13.70;63.40;;;;;;5062939;28;20566;-51
2023/10/17 04:06:21;;;;;;;2.43;1.60;;;13.70;63.40;;;;;;5051549;28;20492;-52
2023/10/17 04:08:56;;;;;;;2.43;2.03;;;13.70;63.40;;;;;;5062592;28;20522;-51
2023/10/17 04:11:36;;;;;;;2.40;2.20;;;13.70;63.20;;;;;;5066963;28;20845;-52
2023/10/17 04:14:08;;;;;;;2.20;1.97;;;13.70;63.20;;;;;;5064068;28;20476;-52
2023/10/17 04:16:43;;;;;;;1.83;1.60;;;13.70;63.20;;;;;;5045408;28;20446;-49
2023/10/17 04:19:17;;;;;;;2.87;2.40;;;13.60;63.30;;;;;;5060455;28;20472;-51
2023/10/17 04:21:51;;;;;;;2.60;2.40;;;13.70;63.20;;;;;;5063127;28;20564;-53
2023/10/17 04:24:29;;;;;;;2.43;1.97;;;13.70;63.20;;;;;;5031451;28;20485;-50
2023/10/17 04:27:18;;;;;;;2.63;1.70;;;13.70;63.20;;;;;;5049949;28;20453;-51
2023/10/17 04:29:51;;;;;;;2.00;1.80;;;13.60;63.30;;;;;;5048211;28;20631;-49
2023/10/17 04:32:20;;;;;;;3.50;2.00;;;13.70;63.40;;;;;;5043279;28;20542;-52
2023/10/17 04:34:49;;;;;;;1.87;1.50;;;13.60;63.20;;;;;;5047521;28;20457;-53
2023/10/17 04:37:24;;;;;;;1.63;1.33;;;13.60;63.30;;;;;;5029437;28;20475;-51
2023/10/17 04:39:57;;;;;;;1.93;1.67;;;13.70;63.40;;;;;;5051139;28;20489;-53
2023/10/17 04:42:34;;;;;;;2.60;2.03;;;13.60;63.20;;;;;;5046986;28;20447;-53
2023/10/17 04:45:05;;;;;;;1.73;1.63;;;13.60;63.30;;;;;;5046536;28;20547;-52
2023/10/17 04:47:38;;;;;;;1.70;1.60;;;13.60;63.30;;;;;;5048917;28;20578;-51
2023/10/17 04:50:11;;;;;;;2.37;1.60;;;13.60;63.30;;;;;;5050917;28;20955;-52
2023/10/17 04:52:40;;;;;;;1.90;1.53;;;13.60;63.30;;;;;;5048051;28;20685;-50
2023/10/17 04:55:18;;;;;;;1.53;1.43;;;13.60;63.40;;;;;;5044920;28;20852;-52
2023/10/17 04:57:56;;;;;;;1.50;1.30;;;13.60;63.30;;;;;;5047919;28;20850;-53
2023/10/17 05:00:43;;;;;;;2.00;1.27;;;13.60;63.30;;;;;;5029349;28;20832;-51
2023/10/17 05:03:26;;;;;;;2.80;1.53;;;13.60;63.30;;;;;;5043898;28;20510;-51
2023/10/17 05:06:18;;;;;;;2.83;2.17;;;13.60;63.30;;;;;;5045508;28;20542;-52
2023/10/17 05:09:12;;;;;;;2.03;1.70;;;13.60;63.30;;;;;;5045818;28;21065;-52
2023/10/17 06:18:26;;;;;;;1.83;1.63;;;13.50;63.30;;;;;;5044987;28;20483;-52
2023/10/17 06:21:07;;;;;;;1.60;1.40;;;13.50;63.50;;;;;;5046471;28;20458;-50
2023/10/17 06:32:06;;;;;;;1.50;1.30;;;13.50;63.30;;;;;;5041789;28;20470;-52
2023/10/17 06:34:34;;;;;;;1.60;1.50;;;13.50;63.30;;;;;;5067911;28;20542;-53
2023/10/17 06:37:03;;;;;;;1.60;1.43;;;13.50;63.20;;;;;;5029588;28;20447;-53
2023/10/17 06:39:46;;;;;;;1.73;1.50;;;13.40;63.20;;;;;;5045467;28;20983;-52
2023/10/17 06:42:16;;;;;;;1.40;1.30;;;13.50;63.10;;;;;;5048301;28;20832;-52
2023/10/17 06:44:54;;;;;;;2.20;1.70;;;13.40;63.20;;;;;;5047631;28;20849;-50
2023/10/17 06:47:29;;;;;;;1.40;1.30;;;13.50;63.40;;;;;;5039712;28;20629;-52
2023/10/17 06:53:02;;;;;;;1.80;1.57;;;13.40;63.20;;;;;;4991907;28;21035;-51
2023/10/17 06:55:38;;;;;;;1.73;1.23;;;13.50;63.30;;;;;;5008530;28;20486;-51
2023/10/17 06:58:11;;;;;;;1.90;1.70;;;13.40;63.30;;;;;;5030703;28;20457;-50
2023/10/17 07:00:49;;;;;;;2.17;1.70;;;13.40;63.30;;;;;;5027882;28;20452;-50
2023/10/17 07:03:25;;;;;;;1.60;1.50;;;13.40;63.10;;;;;;5028990;28;20570;-51
2023/10/17 07:06:10;;;;;;;1.93;1.60;;;13.40;63.30;;;;;;5022384;28;20542;-52
2023/10/17 07:08:41;;;;;;;1.70;1.40;;;13.40;63.10;;;;;;5004877;28;20460;-50
2023/10/17 07:11:24;;;;;;;1.97;1.70;;;13.40;63.30;;;;;;5028281;28;20497;-53
2023/10/17 07:13:59;;;;;;;2.33;1.80;;;13.40;63.10;;;;;;5027150;28;20484;-51
2023/10/17 07:16:33;;;;;;;1.80;1.53;;;13.40;63.10;;;;;;5028668;28;20433;-52
2023/10/17 07:19:46;;;;;;;2.10;1.90;;;13.40;63.30;;;;;;5040597;28;20472;-51
2023/10/17 07:22:06;;;;;;;1.77;1.53;;;13.40;63.10;;;;;;5043357;28;20450;-53
2023/10/17 07:24:36;;;;;;;2.27;1.70;;;13.40;63.20;;;;;;5044031;28;20468;-52
2023/10/17 07:27:11;;;;;;;2.13;1.90;;;13.30;63.20;;;;;;5043769;28;20443;-50
2023/10/17 07:29:52;;;;;;;1.60;1.37;;;13.40;63.20;;;;;;5045957;28;20448;-53
2023/10/17 07:32:25;;;;;;;2.07;1.50;;;13.30;63.20;;;;;;5041293;28;20478;-51
2023/10/17 07:34:58;;;;;;;1.60;1.50;;;13.30;63.20;;;;;;5044109;28;20457;-51
2023/10/17 07:37:26;;;;;;;1.57;1.30;;;13.40;63.10;;;;;;5058099;28;20439;-50
2023/10/17 07:40:16;;;;;;;1.40;1.20;;;13.30;63.10;;;;;;5042493;28;20510;-52
2023/10/17 07:42:46;;;;;;;1.77;1.43;;;13.30;63.30;;;;;;5048050;28;20788;-51
2023/10/17 07:45:17;;;;;;;2.20;1.47;;;13.30;63.20;;;;;;5040049;28;20560;-50
2023/10/17 07:47:53;;;;;;;1.50;1.40;;;13.30;63.30;;;;;;5029002;28;20477;-51
2023/10/17 07:50:25;;;;;;;1.60;1.50;;;13.30;63.40;;;;;;5042782;28;20466;-51
2023/10/17 07:52:59;;;;;;;1.53;1.43;;;13.30;63.20;;;;;;5042240;28;20561;-51
2023/10/17 07:55:37;;;;;;;1.80;1.70;;;13.30;63.20;;;;;;5043575;28;20463;-50
2023/10/17 07:58:11;;;;;;;1.87;1.77;;;13.30;63.10;;;;;;5043622;28;20743;-51
2023/10/17 08:00:40;;;;;;;2.70;2.37;;;13.30;63.20;;;;;;5027032;28;20465;-52
2023/10/17 08:03:10;;;;;;;1.90;1.53;;;13.30;63.10;;;;;;5043185;28;20459;-51
2023/10/17 08:05:58;;;;;;;2.30;1.80;;;13.20;63.10;;;;;;5044187;28;20447;-50
2023/10/17 08:08:33;;;;;;;2.30;2.10;;;13.30;63.20;;;;;;5042737;28;20630;-52
2023/10/17 08:11:03;;;;;;;1.90;1.70;;;13.30;63.20;;;;;;5045182;28;20445;-52
2023/10/17 08:13:32;;;;;;;1.83;1.50;;;13.20;62.90;;;;;;5028320;28;20479;-52
2023/10/17 08:16:11;;;;;;;2.03;1.50;;;13.20;63.30;;;;;;5046965;28;20447;-51
2023/10/17 08:18:41;;;;;;;2.07;1.77;;;13.20;63.40;;;;;;5042101;28;20462;-49
2023/10/17 08:23:54;;;;;;;1.60;1.50;;;13.20;63.50;;;;;;5023922;28;20474;-52
2023/10/17 08:26:28;;;;;;;3.00;2.30;;;13.20;63.40;;;;;;5043981;28;20459;-51
2023/10/17 08:29:01;;;;;;;2.20;1.93;;;13.20;63.40;;;;;;5047174;28;20465;-50
2023/10/17 08:31:35;;;;;;;5.70;1.90;;;13.20;63.30;;;;;;5026393;28;20477;-49
2023/10/17 08:34:12;;;;;;;2.37;2.00;;;13.20;63.20;;;;;;5066911;28;20965;-52
2023/10/17 08:36:42;;;;;;;4.53;2.53;;;13.20;63.40;;;;;;5030494;28;20782;-51
2023/10/17 08:42:05;;;;;;;3.33;1.90;;;13.20;63.10;;;;;;5046966;28;20938;-50
2023/10/17 08:44:38;;;;;;;1.83;1.47;;;13.20;63.40;;;;;;5027353;28;20472;-51
2023/10/17 08:47:10;;;;;;;1.80;1.70;;;13.20;63.40;;;;;;5027748;28;20824;-50
2023/10/17 08:49:39;;;;;;;2.70;1.97;;;13.20;63.60;;;;;;5025054;28;20443;-51
2023/10/17 08:52:19;;;;;;;1.87;1.70;;;13.20;63.40;;;;;;5015727;28;20447;-52
2023/10/17 08:54:48;;;;;;;2.13;1.93;;;13.20;63.20;;;;;;5043753;28;20471;-50
2023/10/17 08:57:17;;;;;;;2.20;1.60;;;13.10;63.30;;;;;;5046387;28;20441;-50
2023/10/17 09:00:14;;;;;;;1.43;1.33;;;13.10;63.10;;;;;;5030134;28;20486;-49
2023/10/17 09:02:55;;;;;;;2.70;1.73;;;13.20;63.50;;;;;;5042154;28;20463;-52
2023/10/17 09:05:27;;;;;;;3.03;2.00;;;13.20;63.60;;;;;;5029813;28;20502;-52
2023/10/17 09:07:57;;;;;;;2.27;1.90;;;13.20;63.40;;;;;;5026942;28;20539;-51
2023/10/17 09:10:36;;;;;;;1.83;1.67;;;13.10;63.30;;;;;;5012303;28;20999;-51
2023/10/17 09:14:10;;;;;;;2.03;1.70;;;13.10;63.30;;;;;;5030165;28;20456;-51
2023/10/17 09:16:10;;;;;;;2.33;1.90;;;13.10;63.30;;;;;;5030652;28;20543;-52
2023/10/17 09:18:47;;;;;;;2.10;1.90;;;13.10;63.40;;;;;;5040836;28;20876;-52
2023/10/17 09:21:20;;;;;;;2.50;2.03;;;13.10;63.20;;;;;;5042262;28;20437;-52
2023/10/17 09:23:50;;;;;;;1.70;1.50;;;13.10;63.20;;;;;;5037785;28;20477;-52
2023/10/17 09:26:20;;;;;;;3.00;1.80;;;13.10;63.20;;;;;;5023704;28;20975;-51
2023/10/17 09:28:49;;;;;;;2.20;1.43;;;13.10;63.30;;;;;;5028987;28;20835;-52
2023/10/17 09:31:20;;;;;;;2.37;1.40;;;13.10;63.30;;;;;;5028904;28;20534;-51
2023/10/17 09:33:53;;;;;;;1.70;1.40;;;13.10;63.60;;;;;;5047726;28;20856;-50
2023/10/17 09:36:25;;;;;;;1.73;1.63;;;13.10;63.40;;;;;;5045843;28;20491;-50
2023/10/17 09:38:55;;;;;;;1.50;1.40;;;13.10;63.10;;;;;;5044905;28;20454;-49
2023/10/17 09:41:23;;;;;;;2.50;1.97;;;13.10;63.10;;;;;;5046491;28;20439;-50
2023/10/17 09:43:53;;;;;;;2.40;1.60;;;13.10;63.00;;;;;;5029783;28;20467;-50
2023/10/17 09:46:27;;;;;;;3.43;1.53;;;13.10;63.10;;;;;;5010598;28;20540;-52
2023/10/17 09:49:01;;;;;;;2.80;2.40;;;13.10;63.40;;;;;;5023402;28;21068;-52
2023/10/17 09:51:34;;;;;;;2.17;1.63;;;13.10;63.10;;;;;;5013420;28;20489;-51
2023/10/17 09:54:04;;;;;;;2.20;1.93;;;13.10;63.40;;;;;;5026472;28;20468;-51
2023/10/17 09:56:37;;;;;;;2.67;1.50;;;13.10;63.30;;;;;;5026423;28;20448;-50
2023/10/17 09:59:11;;;;;;;1.57;1.37;;;13.10;63.10;;;;;;5013573;28;20467;-52
2023/10/17 10:01:49;;;;;;;3.10;1.60;;;13.10;63.30;;;;;;5026117;28;20979;-50
2023/10/17 10:04:20;;;;;;;2.43;1.60;;;13.10;63.30;;;;;;5046389;28;21006;-52
2023/10/17 10:06:51;;;;;;;2.40;1.53;;;13.10;63.10;;;;;;5026309;28;20522;-50
2023/10/17 10:09:27;;;;;;;2.63;2.00;;;13.10;63.10;;;;;;5049718;28;20467;-52
2023/10/17 10:12:01;;;;;;;2.00;1.60;;;13.10;63.00;;;;;;5029504;28;20441;-51
2023/10/17 10:14:43;;;;;;;2.00;1.73;;;13.10;63.00;;;;;;5050660;28;20476;-50
2023/10/17 10:17:14;;;;;;;1.30;1.20;;;13.10;63.00;;;;;;5053768;28;20873;-51
2023/10/17 10:20:04;;;;;;;3.43;1.87;;;13.10;63.00;;;;;;5047919;28;20459;-52
2023/10/17 10:22:56;;;;;;;2.27;1.77;;;13.10;63.00;;;;;;5043389;28;21067;-52
2023/10/17 10:25:26;;;;;;;2.30;1.20;;;13.10;62.80;;;;;;5051368;28;20475;-52
2023/10/17 10:28:26;;;;;;;1.80;1.40;;;13.10;63.20;;;;;;5031638;28;21117;-50
2023/10/17 10:30:55;;;;;;;1.67;1.53;;;13.20;63.40;;;;;;5044438;28;20803;-52
2023/10/17 10:33:28;;;;;;;2.53;1.97;;;13.20;63.30;;;;;;5022157;28;20466;-53
2023/10/17 10:35:58;;;;;;;5.03;2.00;;;13.20;63.20;;;;;;5029660;28;20435;-50
2023/10/17 10:38:30;;;;;;;1.87;1.40;;;13.10;62.70;;;;;;5010247;28;20732;-51
2023/10/17 10:41:07;;;;;;;1.90;1.50;;;13.10;63.30;;;;;;5027350;28;20957;-51
2023/10/17 10:43:35;;;;;;;2.10;1.90;;;13.20;63.40;;;;;;5031341;28;20499;-52
2023/10/17 10:46:04;;;;;;;1.90;1.60;;;13.10;63.30;;;;;;5017510;28;20449;-52
2023/10/17 10:48:33;;;;;;;1.67;1.40;;;13.20;63.30;;;;;;5046519;28;20499;-51
2023/10/17 10:51:04;;;;;;;1.93;1.17;;;13.20;63.50;;;;;;5040187;28;20947;-52
2023/10/17 10:53:36;;;;;;;1.50;1.20;;;13.20;63.30;;;;;;5041889;28;20554;-52
2023/10/17 10:56:06;;;;;;;2.10;1.40;;;13.10;63.10;;;;;;5037151;28;20761;-52
2023/10/17 10:58:42;;;;;;;3.67;1.77;;;13.10;63.20;;;;;;5049242;28;20473;-52
2023/10/17 11:01:12;;;;;;;3.07;1.80;;;13.10;63.10;;;;;;5070721;28;20652;-52
2023/10/17 11:03:41;;;;;;;2.40;1.50;;;13.20;63.00;;;;;;5050615;28;20469;-50
2023/10/17 11:06:12;;;;;;;1.60;1.40;;;13.20;63.00;;;;;;5046049;28;20450;-50
2023/10/17 11:08:43;;;;;;;2.57;1.63;;;13.20;63.10;;;;;;5032699;28;20558;-50
2023/10/17 11:11:15;;;;;;;2.30;1.40;;;13.20;63.00;;;;;;5038290;28;20455;-51
2023/10/17 11:13:46;;;;;;;1.70;1.60;;;13.20;63.20;;;;;;5048716;28;20499;-51
2023/10/17 11:16:18;;;;;;;1.80;1.40;;;13.20;63.10;;;;;;5046006;28;21940;-51
2023/10/17 11:18:47;;;;;;;1.57;1.40;;;13.20;63.30;;;;;;5043597;28;20485;-51
2023/10/17 11:21:19;;;;;;;4.30;1.50;;;13.20;63.10;;;;;;5046904;28;20431;-50
2023/10/17 11:23:51;;;;;;;2.50;1.37;;;13.20;63.20;;;;;;5041572;28;21151;-52
2023/10/17 11:26:25;;;;;;;1.93;1.43;;;13.20;63.10;;;;;;5062076;28;20478;-51
2023/10/17 11:28:57;;;;;;;1.43;1.30;;;13.20;63.00;;;;;;5041931;28;20530;-51
2023/10/17 11:31:26;;;;;;;1.90;1.60;;;13.20;63.10;;;;;;5025902;28;20456;-52
2023/10/17 11:33:55;;;;;;;1.87;1.50;;;13.20;63.00;;;;;;5046661;28;20568;-52
2023/10/17 11:36:29;;;;;;;1.90;1.20;;;13.20;63.10;;;;;;5060559;28;20431;-51
2023/10/17 11:38:58;;;;;;;1.63;1.43;;;13.20;63.30;;;;;;5037680;28;21014;-52
2023/10/17 11:41:38;;;;;;;2.50;1.67;;;13.20;63.10;;;;;;5047458;28;20469;-51
2023/10/17 11:44:09;;;;;;;1.43;1.20;;;13.20;63.30;;;;;;5046183;28;21006;-51
2023/10/17 11:46:38;;;;;;;1.33;0.90;;;13.20;63.30;;;;;;5041881;28;20449;-50
2023/10/17 11:49:20;;;;;;;2.13;1.70;;;13.20;63.40;;;;;;5042880;28;20980;-50
2023/10/17 11:51:59;;;;;;;2.70;1.63;;;13.20;63.20;;;;;;5039392;28;20521;-51
2023/10/17 11:54:28;;;;;;;1.77;1.37;;;13.20;63.00;;;;;;5023761;28;20972;-52
2023/10/17 11:57:22;;;;;;;1.87;1.50;;;13.20;63.00;;;;;;5027600;28;20524;-50
2023/10/17 11:59:58;;;;;;;1.87;1.40;;;13.20;63.10;;;;;;5043803;28;20463;-50
2023/10/17 12:02:29;;;;;;;2.00;1.40;;;13.20;62.50;;;;;;5042008;28;20442;-52
2023/10/17 12:05:00;;;;;;;1.47;1.30;;;13.20;63.30;;;;;;5043792;28;20863;-52
2023/10/17 12:07:30;;;;;;;1.40;1.10;;;13.20;63.30;;;;;;5042834;28;20963;-49
2023/10/17 12:10:04;;;;;;;3.03;1.70;;;13.30;63.40;;;;;;5038341;28;20606;-49
2023/10/17 12:12:34;;;;;;;1.93;1.40;;;13.30;63.20;;;;;;5053702;28;20441;-49
2023/10/17 12:15:05;;;;;;;3.27;1.73;;;13.30;63.10;;;;;;5043572;28;20470;-51
2023/10/17 12:17:33;;;;;;;7.10;2.37;;;13.40;62.80;;;;;;5052059;28;20979;-49
2023/10/17 12:20:09;;;;;;;4.88;2.20;;;13.40;62.60;;;;;;5049676;28;20535;-52
2023/10/17 12:22:39;;;;;;;1.97;1.60;;;13.40;62.00;;;;;;5046102;28;20611;-52
2023/10/17 12:25:09;;;;;;;4.40;1.57;;;13.40;62.20;;;;;;5031497;28;20835;-52
2023/10/17 12:27:39;;;;;;;2.83;1.27;;;13.30;62.10;;;;;;5047117;28;20460;-53
2023/10/17 12:30:10;;;;;;;4.90;1.97;;;13.30;62.30;;;;;;5049132;28;20806;-52
2023/10/17 12:32:39;;;;;;;6.80;1.60;;;13.30;62.20;;;;;;5048067;28;20489;-52
2023/10/17 12:35:12;;;;;;;1.67;1.20;;;13.30;62.50;;;;;;5032215;28;20536;-52
2023/10/17 12:37:44;;;;;;;2.63;1.53;;;13.30;62.40;;;;;;5048398;28;20446;-52
2023/10/17 12:40:18;;;;;;;1.70;1.60;;;13.30;62.60;;;;;;5048226;28;20589;-51
2023/10/17 12:42:47;;;;;;;4.53;1.80;;;13.30;62.70;;;;;;5046654;28;20470;-53
2023/10/17 12:45:17;;;;;;;3.37;1.37;;;13.30;62.80;;;;;;5045687;28;20487;-52
2023/10/17 12:47:45;;;;;;;1.80;1.07;;;13.30;62.70;;;;;;5032103;28;20440;-53
2023/10/17 12:50:15;;;;;;;3.43;1.30;;;13.30;62.60;;;;;;5050817;28;21009;-52
2023/10/17 12:52:45;;;;;;;2.40;1.63;;;13.30;62.80;;;;;;5043370;28;20497;-54
2023/10/17 12:55:13;;;;;;;3.70;1.67;;;13.30;62.90;;;;;;5049544;28;20471;-53
2023/10/17 12:57:43;;;;;;;1.60;1.50;;;13.30;62.80;;;;;;5047862;28;20530;-54
2023/10/17 13:00:14;;;;;;;1.60;1.40;;;13.30;62.90;;;;;;5046328;28;20969;-50
2023/10/17 13:02:43;;;;;;;2.27;1.70;;;13.30;62.90;;;;;;5046199;28;20461;-53
2023/10/17 13:05:12;;;;;;;2.77;1.20;;;13.30;62.90;;;;;;5046704;28;20463;-53
2023/10/17 13:07:42;;;;;;;3.27;1.33;;;13.30;63.10;;;;;;5044469;28;20466;-52
2023/10/17 13:10:12;;;;;;;1.50;1.20;;;13.30;63.10;;;;;;5049544;28;21001;-53
2023/10/17 13:12:41;;;;;;;1.23;1.03;;;13.30;63.00;;;;;;5044988;28;20464;-50
2023/10/17 13:15:14;;;;;;;1.37;1.27;;;13.30;63.00;;;;;;5044716;28;20473;-52
2023/10/17 13:17:44;;;;;;;2.00;1.43;;;13.30;63.10;;;;;;5049984;28;20798;-50
2023/10/17 13:20:16;;;;;;;1.10;0.93;;;13.30;63.10;;;;;;5046045;28;20525;-52
2023/10/17 13:23:04;;;;;;;1.53;1.37;;;13.30;63.00;;;;;;5041027;28;20458;-50
2023/10/17 13:25:39;;;;;;;1.90;1.30;;;13.30;63.20;;;;;;5046816;28;20451;-52
2023/10/17 13:28:08;;;;;;;1.83;1.23;;;13.30;63.00;;;;;;5066531;28;20442;-51
2023/10/17 13:30:36;;;;;;;2.20;1.77;;;13.30;63.10;;;;;;5046195;28;20469;-52
2023/10/17 13:33:06;;;;;;;2.20;1.00;;;13.30;63.20;;;;;;5031900;28;20473;-50
2023/10/17 13:35:37;;;;;;;1.60;1.07;;;13.30;63.10;;;;;;5049503;28;20504;-52
2023/10/17 13:38:05;;;;;;;1.80;1.50;;;13.30;63.10;;;;;;5018425;28;20577;-52
2023/10/17 13:40:34;;;;;;;2.03;1.20;;;13.30;63.10;;;;;;5030850;28;20448;-52
2023/10/17 13:43:04;;;;;;;1.30;0.90;;;13.30;63.10;;;;;;5029772;28;20468;-52
2023/10/17 13:45:37;;;;;;;1.70;1.20;;;13.30;63.00;;;;;;5026902;28;20471;-50
2023/10/17 13:48:07;;;;;;;1.77;1.30;;;13.30;63.10;;;;;;5039089;28;20554;-52
2023/10/17 13:50:36;;;;;;;1.80;1.00;;;13.30;63.00;;;;;;5047018;28;20959;-52
2023/10/17 13:53:09;;;;;;;1.60;1.30;;;13.30;63.10;;;;;;5028431;28;20503;-49
2023/10/17 13:55:38;;;;;;;1.43;1.00;;;13.30;62.70;;;;;;5052017;28;20485;-51
2023/10/17 13:58:08;;;;;;;1.87;1.00;;;13.30;63.10;;;;;;5033801;28;20464;-53
2023/10/17 14:00:43;;;;;;;2.27;1.37;;;13.30;63.20;;;;;;5046398;28;20975;-52
2023/10/17 14:03:13;;;;;;;1.57;1.47;;;13.30;62.90;;;;;;5032184;28;20770;-52
2023/10/17 14:05:43;;;;;;;3.53;0.97;;;13.30;64.00;;;;;;5049312;28;20439;-52
2023/10/17 14:08:13;;;;;;;1.43;1.27;;;13.30;63.20;;;;;;5042638;28;20550;-53
2023/10/17 14:10:43;;;;;;;1.83;1.00;;;13.30;63.40;;;;;;5069234;28;20787;-54
2023/10/17 14:13:15;;;;;;;1.47;1.20;;;13.30;63.20;;;;;;5045485;28;20475;-51
2023/10/17 14:15:43;;;;;;;2.20;1.20;;;13.40;63.20;;;;;;5050729;28;20553;-51
2023/10/17 14:18:14;;;;;;;2.20;1.13;;;13.30;63.10;;;;;;5044072;28;20980;-52
2023/10/17 14:21:04;;;;;;;1.60;1.30;;;13.40;63.20;;;;;;5062200;28;20436;-52
2023/10/17 14:23:45;;;;;;;1.50;1.10;;;13.30;63.10;;;;;;5030592;28;20530;-51
2023/10/17 14:26:15;;;;;;;2.60;1.17;;;13.30;62.90;;;;;;5029086;28;22569;-48
2023/10/17 14:28:44;;;;;;;2.13;1.50;;;13.30;63.10;;;;;;5025466;28;20449;-50
2023/10/17 14:31:12;;;;;;;2.27;1.20;;;13.40;62.10;;;;;;5029926;28;20847;-49
2023/10/17 14:33:41;;;;;;;2.87;1.13;;;13.40;62.30;;;;;;5049797;28;20483;-52
2023/10/17 14:36:10;;;;;;;2.63;1.40;;;13.40;62.20;;;;;;5033894;28;20471;-50
2023/10/17 14:38:38;;;;;;;1.77;1.00;;;13.40;62.10;;;;;;5029620;28;21029;-52
2023/10/17 14:41:10;;;;;;;2.03;1.47;;;13.40;62.10;;;;;;5034427;28;20432;-53
2023/10/17 14:43:39;;;;;;;1.20;0.83;;;13.40;61.90;;;;;;5047823;28;20517;-53
2023/10/17 14:46:09;;;;;;;3.20;1.37;;;13.30;61.00;;;;;;5046707;28;20564;-52
2023/10/17 14:48:37;;;;;;;1.20;1.10;;;13.40;61.00;;;;;;5049409;28;20495;-51